Raleigh Durham International Airport
KRDU : now visible

Airfield :











YOU CAN JOIN US ON...

 
LOGIN :

Register | Disclaimer

   EN    FR    IT 

 









Legend :    VFR   Marginal VFR   IFR   Intensive IFR   Very Intensive IFR
Visi :
Ceiling :
>= 8 km
>= 3000ft
5 to 8 km
1000 to 3000 ft
1500m to 5 km
500 to 1000 ft
800 to 1500m
200 to 500 ft
< 800m
< 200 ft
Symbols :   Thunderstorms  Fog  Heavy snow  Heavy precipitations  Wind > 20 kt






- Airport Elevation : 435 ft
- IATA code : RDU


KRDU - Raleigh Durham International

CURRENT METAR :
  • 042251Z 16005KT 10SM SCT038 BKN060 BKN120 OVC140 16/11 A2996 RMK AO2 SLP143 T01560106

EXPIRED METARs :
  • 042151Z 16005KT 10SM FEW030 FEW060 SCT100 BKN170 OVC250 16/11 A2999 RMK AO2 SLP154 T01610106
  • 042051Z 16006KT 10SM FEW030 BKN170 OVC250 17/11 A3001 RMK AO2 SLP161 T01670106 56031

TAF KRDU
Valid from the 04 at 18:00 until the 05 at 18:00 UTC


041739Z 0418/0518 22008KT P6SM FEW030 BKN060 OVC120
FM050000 16009KT 6SM -RA OVC025
FM050200 19013G20KT 1 1/2SM -SHRA BR OVC004
FM050600 25011G19KT 3SM -RA BR SCT007 OVC015
FM050900 29018G28KT P6SM SCT035
FM051400 31012G22KT P6SM FEW250
KZDC FIR / North America



MET'MAP, your aeronautical weather chart ! - Copyright ORBIFLY December 2007 - Disclaimer

ORBIFLY MET'MAP TEAM :

Programming & Development : Alexandra Zaïnal
Concept & original design : Baudouin d'Aumeries
Assistance for programming : Marc-Olivier Méhu
Technical & hardware support : Manuel Goepfert

Contact : metmap@orbifly.com




SOURCES & CREDITS :

   NOAA       Earth
Advisory